• Join FlightAware (Why Join?)
  • Login
  • US Flag 
Gobble Gobble! 
02:21AM EST


 

Airport Tracker/Info


-or-


 

Live Flight TrackerFlight Track Log ✈ N10933 ✈ 14-Apr-2013 ✈ KHEF - KPTD

Flight Track Log - Related Links

Times and Time Zones

All times are in EDT time to prevent confusion due to time zone crossing. See the N10933 flight status page for this flight to view local times or setup timezone preferences in your user account.

Time Position Orientation Groundspeed Altitude Reporting Facility
EDT Latitude Longitude Course Direction KTS MPH feet Rate Location/Type
04:49PM 38.7000 -77.5000 180° South 115 132 1,000  Level Potomac TRACON
04:50PM 38.6667 -77.5000 180° South 136 157 1,800 720 Climbing Potomac TRACON
04:51PM 38.6333 -77.5333 218° Southwest 140 161 2,500 540 Climbing Potomac TRACON
04:52PM 38.6500 -77.6000 288° West 149 171 3,000 240 Climbing Potomac TRACON
04:53PM 38.6667 -77.6333 303° West 162 186 3,000  Level Potomac TRACON
04:54PM 38.6833 -77.7000 288° West 161 185 3,000  Level Potomac TRACON
04:55PM 38.7000 -77.7500 293° West 164 189 3,100 480 Climbing Potomac TRACON
04:56PM 38.7167 -77.8000 293° West 141 162 4,000 840 Climbing Potomac TRACON
04:57PM 38.7167 -77.8333 270° West 137 158 4,800 720 Climbing Potomac TRACON
04:58PM 38.7500 -77.8667 322° Northwest 161 185 5,500 660 Climbing Potomac TRACON
04:59PM 38.7833 -77.8500 21° North 163 188 6,300 600 Climbing Potomac TRACON
05:00PM 38.8333 -77.8500 360° North 167 192 6,800 300 Climbing Potomac TRACON
05:01PM 38.8833 -77.8500 360° North 188 216 7,000 60 Climbing Potomac TRACON
05:02PM 38.9333 -77.8500 360° North 181 208 7,000 -60 Level Potomac TRACON
05:03PM 38.9833 -77.8500 360° North 174 200 6,900 -60 Descending Potomac TRACON
05:04PM 39.0333 -77.8500 360° North 176 203 6,900 60 Level Potomac TRACON
05:04PM 39.0592 -77.8478 North 178 205 7,000 540 Climbing Washington Center
05:05PM 39.1092 -77.8439 North 167 192 7,800 840 Climbing Washington Center
05:06PM 39.1508 -77.8425 North 146 168 8,700 780 Climbing Washington Center
05:07PM 39.1906 -77.8411 North 151 174 9,400 600 Climbing Washington Center
05:08PM 39.2319 -77.8450 356° North 151 174 10,000 540 Climbing Washington Center
05:09PM 39.2781 -77.8439 North 157 181 10,500 480 Climbing Washington Center
05:10PM 39.3175 -77.8478 356° North 162 186 11,000 240 Climbing Washington Center
05:11PM 39.3611 -77.8544 353° North 157 181 11,000  Level Washington Center
05:12PM 39.4069 -77.8558 359° North 157 181 11,000  Level Washington Center
05:13PM 39.4528 -77.8600 356° North 157 181 11,000  Level Washington Center
05:14PM 39.4986 -77.8506 North 157 181 11,000  Level Washington Center
05:15PM 39.5425 -77.8519 359° North 157 181 11,000  Level Washington Center
05:16PM 39.5864 -77.8508 North 157 181 11,000  Level Washington Center
05:19PM 39.6775 -77.8575 357° North 158 182 11,000  Level New York Center
05:20PM 39.7239 -77.8486 North 158 182 11,000  Level New York Center
05:20PM 39.7694 -77.8208 25° Northeast 163 188 11,000  Level New York Center
05:22PM 39.8150 -77.7875 29° Northeast 176 203 11,000  Level New York Center
05:23PM 39.8611 -77.7517 31° Northeast 187 215 11,000  Level New York Center
05:23PM 39.9042 -77.7261 24° Northeast 187 215 11,000  Level New York Center
05:25PM 39.9517 -77.7011 22° Northeast 177 204 11,000  Level New York Center
05:26PM 39.9947 -77.6756 24° Northeast 177 204 11,000  Level New York Center
05:26PM 40.0400 -77.6500 23° Northeast 177 204 11,000  Level New York Center
05:27PM 40.0853 -77.6275 21° North 177 204 11,000  Level New York Center
05:29PM 40.1372 -77.5944 26° Northeast 184 212 11,000  Level New York Center
05:29PM 40.1825 -77.5664 25° Northeast 178 205 11,000  Level New York Center
05:30PM 40.2275 -77.5464 19° North 178 205 11,000 -60 Level New York Center
05:31PM 40.2733 -77.5128 29° Northeast 179 206 10,900  Descending New York Center
05:32PM 40.3161 -77.4897 22° Northeast 179 206 11,000  Climbing New York Center
05:34PM 40.3631 -77.4750 13° North 168 193 11,000  Level New York Center
05:34PM 40.4081 -77.4522 21° North 168 193 11,000  Level New York Center
05:35PM 40.4572 -77.4297 19° North 173 199 11,000  Level New York Center
05:37PM 40.5025 -77.4039 23° Northeast 173 199 11,000  Level New York Center
05:37PM 40.5497 -77.3783 22° Northeast 173 199 11,000  Level New York Center
05:38PM 40.5969 -77.3531 22° Northeast 173 199 11,000  Level New York Center
05:40PM 40.6442 -77.3272 23° Northeast 178 205 11,000  Level New York Center
05:41PM 40.6917 -77.3017 22° Northeast 178 205 11,000  Level New York Center
05:41PM 40.7367 -77.2786 21° North 178 205 11,000  Level New York Center
05:42PM 40.7817 -77.2528 23° Northeast 178 205 11,000  Level New York Center
05:44PM 40.8292 -77.2272 22° Northeast 178 205 11,000  Level New York Center
05:44PM 40.8722 -77.2011 25° Northeast 178 205 11,000  Level New York Center
05:46PM 40.9192 -77.1781 20° North 178 205 11,000  Level New York Center
05:47PM 40.9644 -77.1519 24° Northeast 178 205 11,000  Level New York Center
05:47PM 41.0094 -77.1286 21° North 178 205 11,000  Level New York Center
05:48PM 41.0547 -77.1000 25° Northeast 178 205 11,000  Level New York Center
05:49PM 41.1019 -77.0767 20° North 178 205 11,000  Level New York Center
05:50PM 41.1428 -77.0531 24° Northeast 173 199 11,000  Level New York Center
05:51PM 41.1836 -77.0292 24° Northeast 168 193 11,000  Level New York Center
05:52PM 41.2264 -77.0083 20° North 162 186 11,000  Level New York Center
05:54PM 41.2650 -76.9844 25° Northeast 157 181 11,000  Level New York Center
05:55PM 41.3036 -76.9631 23° Northeast 157 181 11,000  Level New York Center
05:55PM 41.3444 -76.9392 24° Northeast 157 181 11,000  Level New York Center
05:56PM 41.3831 -76.9206 20° North 157 181 11,000  Level New York Center
05:57PM 41.4258 -76.8967 23° Northeast 157 181 11,000  Level New York Center
05:59PM 41.4689 -76.8703 25° Northeast 157 181 11,000  Level New York Center
05:59PM 41.5139 -76.8467 21° North 157 181 11,000  Level New York Center
06:00PM 41.5592 -76.8175 26° Northeast 157 181 11,000  Level New York Center
06:02PM 41.6061 -76.7911 23° Northeast 167 192 11,000  Level New York Center
06:03PM 41.6511 -76.7675 21° North 172 198 11,000  Level New York Center
06:03PM 41.6961 -76.7408 24° Northeast 172 198 11,000  Level New York Center
06:05PM 41.7414 -76.7144 24° Northeast 172 198 11,000  Level New York Center
06:06PM 41.7883 -76.6908 21° North 177 204 11,100  Climbing New York Center
06:06PM 41.8336 -76.6614 26° Northeast 177 204 11,100  Level New York Center
06:07PM 41.8783 -76.6375 22° Northeast 177 204 11,100  Level New York Center
06:08PM 41.9233 -76.6108 24° Northeast 177 204 11,100  Level New York Center
06:10PM 41.9706 -76.5869 21° North 177 204 11,100  Level New York Center
06:10PM 42.0086 -76.5736 15° North 177 204 11,100  Level New York Center
06:11PM 42.0544 -76.5719 North 166 191 11,100  Level New York Center
06:12PM 42.0983 -76.5675 North 166 191 11,100  Level New York Center
06:13PM 42.1442 -76.5689 359° North 160 184 11,100  Level New York Center
06:15PM 42.1906 -76.5561 12° North 160 184 11,100  Level New York Center
06:16PM 42.2342 -76.5178 33° Northeast 166 191 11,100  Level New York Center
06:16PM 42.2772 -76.4881 27° Northeast 179 206 11,100  Level New York Center
06:17PM 42.3258 -76.4697 16° North 179 206 11,100  Level New York Center
06:19PM 42.3711 -76.4400 26° Northeast 174 200 11,100  Level New York Center
06:20PM 42.4139 -76.4156 23° Northeast 174 200 11,100  Level New York Center
06:20PM 42.4608 -76.3861 25° Northeast 174 200 11,100  Level New York Center
06:21PM 42.5058 -76.3617 22° Northeast 174 200 11,100  Level New York Center
06:22PM 42.5461 -76.3353 26° Northeast 183 211 11,100  Level Boston Center
06:23PM 42.5886 -76.3125 22° Northeast 177 204 11,100  Level Boston Center
06:24PM 42.6311 -76.2869 24° Northeast 177 204 11,100 -60 Level Boston Center
06:25PM 42.6781 -76.2589 24° Northeast 177 204 11,000  Descending Boston Center
06:26PM 42.7269 -76.2278 25° Northeast 182 209 11,100  Climbing Boston Center
06:27PM 42.7700 -76.1936 30° Northeast 182 209 11,100 -60 Level Boston Center
06:28PM 42.8147 -76.1625 27° Northeast 182 209 11,000 -60 Descending Boston Center
06:29PM 42.8575 -76.1283 30° Northeast 182 209 11,000  Level Boston Center
06:30PM 42.9025 -76.0942 29° Northeast 182 209 11,000  Level Boston Center
06:31PM 42.9472 -76.0628 27° Northeast 182 209 11,000  Level Boston Center
06:32PM 42.9942 -76.0286 28° Northeast 182 209 11,000  Level Boston Center
06:33PM 43.0392 -75.9914 31° Northeast 182 209 11,000  Level Boston Center
06:34PM 43.0839 -75.9597 27° Northeast 182 209 11,000  Level Boston Center
06:35PM 43.1286 -75.9311 25° Northeast 182 209 11,000  Level Boston Center
06:36PM 43.1733 -75.8994 27° Northeast 182 209 11,000  Level Boston Center
06:37PM 43.2178 -75.8706 25° Northeast 182 209 11,000  Level Boston Center
06:38PM 43.2625 -75.8389 27° Northeast 182 209 11,000  Level Boston Center
06:39PM 43.3072 -75.8100 25° Northeast 182 209 11,000  Level Boston Center
06:40PM 43.3500 -75.7781 29° Northeast 177 204 11,000  Level Boston Center
06:41PM 43.3967 -75.7492 24° Northeast 177 204 11,000  Level Boston Center
06:42PM 43.4414 -75.7117 31° Northeast 182 209 11,000  Level Boston Center
06:43PM 43.4861 -75.6797 27° Northeast 182 209 11,000  Level Boston Center
06:44PM 43.5328 -75.6506 24° Northeast 177 204 11,000  Level Boston Center
06:45PM 43.5775 -75.6186 27° Northeast 177 204 11,000  Level Boston Center
06:46PM 43.6203 -75.5808 33° Northeast 182 209 11,000  Level Boston Center
06:47PM 43.6669 -75.5458 28° Northeast 182 209 11,000  Level Boston Center
06:49PM 43.7139 -75.5139 26° Northeast 182 209 11,000  Level Boston Center
06:50PM 43.7650 -75.4703 32° Northeast 182 209 11,000  Level Boston Center
06:51PM 43.8097 -75.4353 29° Northeast 182 209 11,000  Level Boston Center
06:52PM 43.8564 -75.4031 26° Northeast 182 209 11,000  Level Boston Center
06:53PM 43.8989 -75.3678 31° Northeast 182 209 11,000 -300 Level Boston Center
06:54PM 43.9436 -75.3322 30° Northeast 182 209 10,500 -660 Descending Boston Center
06:55PM 43.9967 -75.2886 31° Northeast 182 209 9,700 -780 Descending Boston Center
06:56PM 44.0478 -75.2508 28° Northeast 187 215 9,000 -600 Descending Boston Center
06:57PM 44.0925 -75.2094 34° Northeast 187 215 8,600 -300 Descending Boston Center
06:58PM 44.1392 -75.1769 27° Northeast 187 215 8,400 -420 Descending Boston Center
06:59PM 44.1839 -75.1414 30° Northeast 187 215 7,800 -660 Descending Boston Center
07:00PM 44.2411 -75.0975 29° Northeast 187 215 7,000 -600 Descending Boston Center
07:01PM 44.2836 -75.0617 31° Northeast 187 215 6,700 -480 Descending Boston Center
07:02PM 44.3258 -75.0289 29° Northeast 187 215 6,100 -660 Descending Boston Center
07:03PM 44.3683 -74.9928 31° Northeast 187 215 5,400 -660 Descending Boston Center
07:04PM 44.4108 -74.9597 29° Northeast 187 215 4,900 -240 Descending Boston Center
07:05PM 44.4511 -74.9294 28° Northeast 177 204 5,000  Climbing Boston Center
07:06PM 44.4828 -74.9047 29° Northeast 170 196 5,000  Level Boston Center
07:07PM 44.5253 -74.8656 33° Northeast 159 183 5,000  Level Boston Center
07:08PM 44.5678 -74.8383 25° Northeast 159 183 5,000  Level Boston Center
07:09PM 44.6036 -74.8106 29° Northeast 159 183 5,000  Level Boston Center
07:10PM 44.6333 -74.7825 34° Northeast 159 183 5,000 -60 Level Boston Center
07:13PM 44.7592 -74.7408 13° North 189 217 4,900 1,440 Descending Boston Center
07:14PM 44.8108 -74.7633 343° North 189 217 11,000 3,000 Climbing Boston Center
07:15PM 44.8625 -74.7889 341° North 189 217 11,000  Level Boston Center
07:16PM 44.9142 -74.8114 343° North 189 217 11,000  Level Boston Center
07:17PM 44.9347 -74.8211 341° North 189 217 11,000  Level Boston Center
07:19PM 44.9347 -74.8211 341° North 189 217 11,000  Level Boston Center
07:21PM 44.9347 -74.8211 341° North 189 217 11,000  Level Boston Center
07:23PM 44.9347 -74.8211 341° North 189 217 11,000  Level Boston Center
07:25PM 44.9347 -74.8211 341° North 189 217 11,000  Level Boston Center
07:27PM 44.9347 -74.8211 341° North 189 217 11,000  Level Boston Center
07:29PM 44.9347 -74.8211 341° North 189 217 11,000  Level Boston Center
07:31PM 44.9347 -74.8211 341° North 189 217 11,000  Level Boston Center
07:33PM 44.9347 -74.8211 341° North 189 217 11,000  Level Boston Center
07:35PM 44.9347 -74.8211 341° North 189 217 11,000  Level Boston Center
07:36PM 44.7678 -74.9369 206° Southwest 189 217 11,000  Level Boston Center
07:37PM 44.6778 -74.9478 185° South 189 217 11,000  Level Boston Center
07:39PM 44.6778 -74.9478 145° Southeast 189 217 11,000  Level Boston Center
07:41PM 44.6778 -74.9478 145° Southeast 189 217 11,000  Level Boston Center
07:43PM 44.6778 -74.9478 145° Southeast 189 217 11,000  Level Boston Center